sensor_id;sensor_type;location;lat;lon;timestamp;P1;durP1;ratioP1;P2;durP2;ratioP2
75916;SDS011;64595;50.148;14.334;2023-04-03T00:00:37;7.45;;;3.25;;
75916;SDS011;64595;50.148;14.334;2023-04-03T00:03:02;6.18;;;3.08;;
75916;SDS011;64595;50.148;14.334;2023-04-03T00:05:28;6.88;;;3.25;;
75916;SDS011;64595;50.148;14.334;2023-04-03T00:07:53;4.65;;;3.05;;
75916;SDS011;64595;50.148;14.334;2023-04-03T00:10:19;8.05;;;3.53;;
75916;SDS011;64595;50.148;14.334;2023-04-03T00:12:46;4.13;;;3.00;;
75916;SDS011;64595;50.148;14.334;2023-04-03T00:15:11;6.78;;;3.30;;
75916;SDS011;64595;50.148;14.334;2023-04-03T00:17:37;4.25;;;2.70;;
75916;SDS011;64595;50.148;14.334;2023-04-03T00:20:02;5.40;;;3.78;;
75916;SDS011;64595;50.148;14.334;2023-04-03T00:22:28;7.05;;;3.10;;
75916;SDS011;64595;50.148;14.334;2023-04-03T00:24:54;6.18;;;3.33;;
75916;SDS011;64595;50.148;14.334;2023-04-03T00:27:20;6.28;;;3.17;;
75916;SDS011;64595;50.148;14.334;2023-04-03T00:29:46;6.25;;;3.80;;
75916;SDS011;64595;50.148;14.334;2023-04-03T00:32:12;6.40;;;3.30;;
75916;SDS011;64595;50.148;14.334;2023-04-03T00:34:38;5.40;;;3.38;;
75916;SDS011;64595;50.148;14.334;2023-04-03T00:37:03;10.48;;;3.60;;
75916;SDS011;64595;50.148;14.334;2023-04-03T00:39:28;6.63;;;3.33;;
75916;SDS011;64595;50.148;14.334;2023-04-03T00:41:54;5.88;;;2.92;;
75916;SDS011;64595;50.148;14.334;2023-04-03T00:44:20;4.90;;;3.22;;
75916;SDS011;64595;50.148;14.334;2023-04-03T00:46:48;6.97;;;3.35;;
75916;SDS011;64595;50.148;14.334;2023-04-03T00:49:13;6.88;;;3.50;;
75916;SDS011;64595;50.148;14.334;2023-04-03T00:51:39;5.38;;;2.72;;
75916;SDS011;64595;50.148;14.334;2023-04-03T00:54:05;5.55;;;2.85;;
75916;SDS011;64595;50.148;14.334;2023-04-03T00:56:32;5.28;;;2.92;;
75916;SDS011;64595;50.148;14.334;2023-04-03T00:58:58;4.45;;;2.50;;
75916;SDS011;64595;50.148;14.334;2023-04-03T01:01:25;4.88;;;2.85;;
75916;SDS011;64595;50.148;14.334;2023-04-03T01:03:53;4.47;;;2.63;;
75916;SDS011;64595;50.148;14.334;2023-04-03T01:06:20;6.13;;;3.05;;
75916;SDS011;64595;50.148;14.334;2023-04-03T01:08:48;4.35;;;2.95;;
75916;SDS011;64595;50.148;14.334;2023-04-03T01:11:14;6.07;;;2.58;;
75916;SDS011;64595;50.148;14.334;2023-04-03T01:13:47;7.65;;;3.28;;
75916;SDS011;64595;50.148;14.334;2023-04-03T01:16:13;4.30;;;2.28;;
75916;SDS011;64595;50.148;14.334;2023-04-03T01:18:39;4.57;;;2.55;;
75916;SDS011;64595;50.148;14.334;2023-04-03T01:24:24;3.72;;;2.17;;
75916;SDS011;64595;50.148;14.334;2023-04-03T01:26:55;5.15;;;2.47;;
75916;SDS011;64595;50.148;14.334;2023-04-03T01:29:21;6.30;;;2.60;;
75916;SDS011;64595;50.148;14.334;2023-04-03T01:31:49;4.30;;;2.50;;
75916;SDS011;64595;50.148;14.334;2023-04-03T01:34:16;4.07;;;2.45;;
75916;SDS011;64595;50.148;14.334;2023-04-03T01:36:41;6.93;;;2.70;;
75916;SDS011;64595;50.148;14.334;2023-04-03T01:39:07;4.57;;;2.35;;
75916;SDS011;64595;50.148;14.334;2023-04-03T01:41:32;7.50;;;2.75;;
75916;SDS011;64595;50.148;14.334;2023-04-03T01:43:58;5.55;;;2.35;;
75916;SDS011;64595;50.148;14.334;2023-04-03T01:46:23;5.53;;;2.33;;
75916;SDS011;64595;50.148;14.334;2023-04-03T01:48:50;4.38;;;2.50;;
75916;SDS011;64595;50.148;14.334;2023-04-03T01:51:16;6.63;;;2.22;;
75916;SDS011;64595;50.148;14.334;2023-04-03T01:53:41;3.67;;;1.80;;
75916;SDS011;64595;50.148;14.334;2023-04-03T01:56:07;4.57;;;2.00;;
75916;SDS011;64595;50.148;14.334;2023-04-03T01:58:33;4.18;;;2.30;;
75916;SDS011;64595;50.148;14.334;2023-04-03T02:00:58;3.70;;;1.98;;
75916;SDS011;64595;50.148;14.334;2023-04-03T02:03:24;6.80;;;2.33;;
75916;SDS011;64595;50.148;14.334;2023-04-03T02:05:51;4.90;;;2.55;;
75916;SDS011;64595;50.148;14.334;2023-04-03T02:08:16;3.55;;;1.65;;
75916;SDS011;64595;50.148;14.334;2023-04-03T02:10:42;4.05;;;2.28;;
75916;SDS011;64595;50.148;14.334;2023-04-03T02:13:07;6.63;;;2.28;;
75916;SDS011;64595;50.148;14.334;2023-04-03T02:15:33;4.10;;;1.98;;
75916;SDS011;64595;50.148;14.334;2023-04-03T02:17:58;2.45;;;1.50;;
75916;SDS011;64595;50.148;14.334;2023-04-03T02:20:23;3.75;;;2.03;;
75916;SDS011;64595;50.148;14.334;2023-04-03T02:22:50;3.33;;;1.85;;
75916;SDS011;64595;50.148;14.334;2023-04-03T02:25:16;4.55;;;2.15;;
75916;SDS011;64595;50.148;14.334;2023-04-03T02:27:41;6.38;;;2.00;;
75916;SDS011;64595;50.148;14.334;2023-04-03T02:30:07;3.58;;;2.15;;
75916;SDS011;64595;50.148;14.334;2023-04-03T02:32:33;4.22;;;1.70;;
75916;SDS011;64595;50.148;14.334;2023-04-03T02:34:58;5.32;;;2.05;;
75916;SDS011;64595;50.148;14.334;2023-04-03T02:37:24;5.00;;;2.00;;
75916;SDS011;64595;50.148;14.334;2023-04-03T02:39:51;5.15;;;2.10;;
75916;SDS011;64595;50.148;14.334;2023-04-03T02:42:16;5.35;;;1.90;;
75916;SDS011;64595;50.148;14.334;2023-04-03T02:44:41;4.70;;;2.20;;
75916;SDS011;64595;50.148;14.334;2023-04-03T02:47:07;3.95;;;2.08;;
75916;SDS011;64595;50.148;14.334;2023-04-03T02:49:32;4.13;;;2.08;;
75916;SDS011;64595;50.148;14.334;2023-04-03T02:51:58;4.93;;;2.10;;
75916;SDS011;64595;50.148;14.334;2023-04-03T02:54:23;4.10;;;1.75;;
75916;SDS011;64595;50.148;14.334;2023-04-03T02:56:50;2.78;;;1.10;;
75916;SDS011;64595;50.148;14.334;2023-04-03T02:59:16;3.97;;;2.22;;
75916;SDS011;64595;50.148;14.334;2023-04-03T03:01:41;8.88;;;2.35;;
75916;SDS011;64595;50.148;14.334;2023-04-03T03:04:07;6.95;;;2.33;;
75916;SDS011;64595;50.148;14.334;2023-04-03T03:06:32;4.68;;;1.90;;
75916;SDS011;64595;50.148;14.334;2023-04-03T03:08:58;3.58;;;1.80;;
75916;SDS011;64595;50.148;14.334;2023-04-03T03:11:23;4.57;;;2.05;;
75916;SDS011;64595;50.148;14.334;2023-04-03T03:13:50;3.80;;;2.00;;
75916;SDS011;64595;50.148;14.334;2023-04-03T03:16:15;5.65;;;2.05;;
75916;SDS011;64595;50.148;14.334;2023-04-03T03:18:41;3.80;;;2.10;;
75916;SDS011;64595;50.148;14.334;2023-04-03T03:21:06;5.72;;;2.67;;
75916;SDS011;64595;50.148;14.334;2023-04-03T03:23:33;4.72;;;2.42;;
75916;SDS011;64595;50.148;14.334;2023-04-03T03:26:00;4.10;;;2.20;;
75916;SDS011;64595;50.148;14.334;2023-04-03T03:28:26;7.53;;;2.70;;
75916;SDS011;64595;50.148;14.334;2023-04-03T03:30:53;4.82;;;2.22;;
75916;SDS011;64595;50.148;14.334;2023-04-03T03:33:18;6.97;;;2.35;;
75916;SDS011;64595;50.148;14.334;2023-04-03T03:35:44;4.50;;;1.95;;
75916;SDS011;64595;50.148;14.334;2023-04-03T03:38:10;8.02;;;2.33;;
75916;SDS011;64595;50.148;14.334;2023-04-03T03:40:35;8.30;;;2.00;;
75916;SDS011;64595;50.148;14.334;2023-04-03T03:43:01;4.43;;;2.10;;
75916;SDS011;64595;50.148;14.334;2023-04-03T03:45:26;10.02;;;2.50;;
75916;SDS011;64595;50.148;14.334;2023-04-03T03:47:53;7.57;;;2.70;;
75916;SDS011;64595;50.148;14.334;2023-04-03T03:50:19;6.82;;;3.10;;
75916;SDS011;64595;50.148;14.334;2023-04-03T03:52:44;3.85;;;2.35;;
75916;SDS011;64595;50.148;14.334;2023-04-03T03:55:10;5.28;;;2.45;;
75916;SDS011;64595;50.148;14.334;2023-04-03T03:57:35;8.50;;;2.40;;
75916;SDS011;64595;50.148;14.334;2023-04-03T04:00:01;6.43;;;2.38;;
75916;SDS011;64595;50.148;14.334;2023-04-03T04:02:27;4.10;;;2.10;;
75916;SDS011;64595;50.148;14.334;2023-04-03T04:04:53;3.05;;;2.17;;
75916;SDS011;64595;50.148;14.334;2023-04-03T04:07:19;4.50;;;2.25;;
75916;SDS011;64595;50.148;14.334;2023-04-03T04:09:44;8.32;;;3.30;;
75916;SDS011;64595;50.148;14.334;2023-04-03T04:12:10;5.97;;;2.88;;
75916;SDS011;64595;50.148;14.334;2023-04-03T04:14:35;5.55;;;2.80;;
75916;SDS011;64595;50.148;14.334;2023-04-03T04:17:01;4.20;;;2.05;;
75916;SDS011;64595;50.148;14.334;2023-04-03T04:19:26;5.07;;;2.42;;
75916;SDS011;64595;50.148;14.334;2023-04-03T04:21:53;7.10;;;2.20;;
75916;SDS011;64595;50.148;14.334;2023-04-03T04:24:18;6.75;;;2.65;;
75916;SDS011;64595;50.148;14.334;2023-04-03T04:26:44;4.15;;;2.03;;
75916;SDS011;64595;50.148;14.334;2023-04-03T04:29:09;5.90;;;2.55;;
75916;SDS011;64595;50.148;14.334;2023-04-03T04:31:35;4.18;;;2.63;;
75916;SDS011;64595;50.148;14.334;2023-04-03T04:34:01;6.15;;;2.40;;
75916;SDS011;64595;50.148;14.334;2023-04-03T04:36:26;4.90;;;2.40;;
75916;SDS011;64595;50.148;14.334;2023-04-03T04:38:53;3.85;;;2.10;;
75916;SDS011;64595;50.148;14.334;2023-04-03T04:41:19;3.85;;;1.95;;
75916;SDS011;64595;50.148;14.334;2023-04-03T04:43:44;7.35;;;3.78;;
75916;SDS011;64595;50.148;14.334;2023-04-03T04:46:10;4.40;;;2.85;;
75916;SDS011;64595;50.148;14.334;2023-04-03T04:48:35;5.55;;;2.28;;
75916;SDS011;64595;50.148;14.334;2023-04-03T04:51:01;8.02;;;3.08;;
75916;SDS011;64595;50.148;14.334;2023-04-03T04:53:27;7.55;;;2.95;;
75916;SDS011;64595;50.148;14.334;2023-04-03T04:55:54;7.90;;;2.53;;
75916;SDS011;64595;50.148;14.334;2023-04-03T04:58:19;7.03;;;2.70;;
75916;SDS011;64595;50.148;14.334;2023-04-03T05:00:45;5.30;;;2.83;;
75916;SDS011;64595;50.148;14.334;2023-04-03T05:03:11;7.95;;;2.90;;
75916;SDS011;64595;50.148;14.334;2023-04-03T05:05:51;5.72;;;2.72;;
75916;SDS011;64595;50.148;14.334;2023-04-03T05:08:16;4.78;;;2.88;;
75916;SDS011;64595;50.148;14.334;2023-04-03T05:10:42;7.32;;;3.58;;
75916;SDS011;64595;50.148;14.334;2023-04-03T05:13:09;4.95;;;2.80;;
75916;SDS011;64595;50.148;14.334;2023-04-03T05:15:34;6.35;;;2.70;;
75916;SDS011;64595;50.148;14.334;2023-04-03T05:18:00;4.35;;;2.60;;
75916;SDS011;64595;50.148;14.334;2023-04-03T05:20:25;3.58;;;2.42;;
75916;SDS011;64595;50.148;14.334;2023-04-03T05:22:51;5.10;;;2.85;;
75916;SDS011;64595;50.148;14.334;2023-04-03T05:25:18;7.07;;;3.67;;
75916;SDS011;64595;50.148;14.334;2023-04-03T05:27:43;7.22;;;3.20;;
75916;SDS011;64595;50.148;14.334;2023-04-03T05:30:11;5.53;;;3.75;;
75916;SDS011;64595;50.148;14.334;2023-04-03T05:32:37;6.63;;;3.15;;
75916;SDS011;64595;50.148;14.334;2023-04-03T05:35:02;12.63;;;3.85;;
75916;SDS011;64595;50.148;14.334;2023-04-03T05:37:29;11.45;;;6.72;;
75916;SDS011;64595;50.148;14.334;2023-04-03T05:39:54;30.55;;;13.65;;
75916;SDS011;64595;50.148;14.334;2023-04-03T05:42:20;13.98;;;6.43;;
75916;SDS011;64595;50.148;14.334;2023-04-03T05:44:45;9.95;;;4.60;;
75916;SDS011;64595;50.148;14.334;2023-04-03T05:47:12;7.82;;;4.18;;
75916;SDS011;64595;50.148;14.334;2023-04-03T05:49:38;7.80;;;3.90;;
75916;SDS011;64595;50.148;14.334;2023-04-03T05:52:03;8.25;;;4.25;;
75916;SDS011;64595;50.148;14.334;2023-04-03T05:54:29;7.00;;;3.53;;
75916;SDS011;64595;50.148;14.334;2023-04-03T05:56:55;8.23;;;3.15;;
75916;SDS011;64595;50.148;14.334;2023-04-03T05:59:20;5.75;;;2.97;;
75916;SDS011;64595;50.148;14.334;2023-04-03T06:01:46;8.13;;;3.72;;
75916;SDS011;64595;50.148;14.334;2023-04-03T06:04:13;10.20;;;3.30;;
75916;SDS011;64595;50.148;14.334;2023-04-03T06:06:43;8.65;;;4.15;;
75916;SDS011;64595;50.148;14.334;2023-04-03T06:09:09;7.20;;;3.75;;
75916;SDS011;64595;50.148;14.334;2023-04-03T06:11:34;8.63;;;3.63;;
75916;SDS011;64595;50.148;14.334;2023-04-03T06:14:00;4.60;;;3.00;;
75916;SDS011;64595;50.148;14.334;2023-04-03T06:16:25;4.57;;;3.53;;
75916;SDS011;64595;50.148;14.334;2023-04-03T06:18:51;6.22;;;3.97;;
75916;SDS011;64595;50.148;14.334;2023-04-03T06:21:18;6.13;;;4.10;;
75916;SDS011;64595;50.148;14.334;2023-04-03T06:23:43;7.43;;;3.08;;
75916;SDS011;64595;50.148;14.334;2023-04-03T06:26:09;5.80;;;3.55;;
75916;SDS011;64595;50.148;14.334;2023-04-03T06:28:34;5.15;;;2.90;;
75916;SDS011;64595;50.148;14.334;2023-04-03T06:31:00;8.68;;;3.97;;
75916;SDS011;64595;50.148;14.334;2023-04-03T06:33:25;4.00;;;3.25;;
75916;SDS011;64595;50.148;14.334;2023-04-03T06:35:55;6.03;;;3.42;;
75916;SDS011;64595;50.148;14.334;2023-04-03T06:38:22;5.88;;;4.15;;
75916;SDS011;64595;50.148;14.334;2023-04-03T06:40:48;6.22;;;3.35;;
75916;SDS011;64595;50.148;14.334;2023-04-03T06:43:13;8.52;;;3.60;;
75916;SDS011;64595;50.148;14.334;2023-04-03T06:45:38;5.28;;;3.40;;
75916;SDS011;64595;50.148;14.334;2023-04-03T06:48:04;10.98;;;2.95;;
75916;SDS011;64595;50.148;14.334;2023-04-03T06:50:30;6.10;;;3.38;;
75916;SDS011;64595;50.148;14.334;2023-04-03T06:52:55;6.55;;;3.05;;
75916;SDS011;64595;50.148;14.334;2023-04-03T06:55:22;4.28;;;3.22;;
75916;SDS011;64595;50.148;14.334;2023-04-03T06:57:48;6.80;;;3.58;;
75916;SDS011;64595;50.148;14.334;2023-04-03T07:00:13;4.57;;;2.95;;
75916;SDS011;64595;50.148;14.334;2023-04-03T07:02:40;7.55;;;3.20;;
75916;SDS011;64595;50.148;14.334;2023-04-03T07:05:05;6.38;;;4.00;;
75916;SDS011;64595;50.148;14.334;2023-04-03T07:07:31;6.15;;;3.47;;
75916;SDS011;64595;50.148;14.334;2023-04-03T07:09:57;6.82;;;3.58;;
75916;SDS011;64595;50.148;14.334;2023-04-03T07:12:24;3.88;;;2.60;;
75916;SDS011;64595;50.148;14.334;2023-04-03T07:14:49;5.72;;;3.40;;
75916;SDS011;64595;50.148;14.334;2023-04-03T07:17:15;7.28;;;3.90;;
75916;SDS011;64595;50.148;14.334;2023-04-03T07:19:40;4.25;;;3.00;;
75916;SDS011;64595;50.148;14.334;2023-04-03T07:22:06;7.85;;;4.88;;
75916;SDS011;64595;50.148;14.334;2023-04-03T07:24:31;5.00;;;2.53;;
75916;SDS011;64595;50.148;14.334;2023-04-03T07:26:57;6.85;;;3.60;;
75916;SDS011;64595;50.148;14.334;2023-04-03T07:29:24;5.15;;;3.22;;
75916;SDS011;64595;50.148;14.334;2023-04-03T07:31:49;7.32;;;3.70;;
75916;SDS011;64595;50.148;14.334;2023-04-03T07:34:15;10.35;;;4.32;;
75916;SDS011;64595;50.148;14.334;2023-04-03T07:36:40;7.05;;;4.20;;
75916;SDS011;64595;50.148;14.334;2023-04-03T07:39:06;6.18;;;3.92;;
75916;SDS011;64595;50.148;14.334;2023-04-03T07:41:31;8.05;;;3.90;;
75916;SDS011;64595;50.148;14.334;2023-04-03T07:43:57;9.98;;;4.50;;
75916;SDS011;64595;50.148;14.334;2023-04-03T07:46:24;4.85;;;3.63;;
75916;SDS011;64595;50.148;14.334;2023-04-03T07:48:49;4.18;;;3.08;;
75916;SDS011;64595;50.148;14.334;2023-04-03T07:51:15;6.28;;;4.38;;
75916;SDS011;64595;50.148;14.334;2023-04-03T07:53:40;5.45;;;4.78;;
75916;SDS011;64595;50.148;14.334;2023-04-03T07:56:06;7.82;;;5.05;;
75916;SDS011;64595;50.148;14.334;2023-04-03T07:58:33;8.90;;;6.05;;
75916;SDS011;64595;50.148;14.334;2023-04-03T08:00:58;9.30;;;5.18;;
75916;SDS011;64595;50.148;14.334;2023-04-03T08:03:25;18.13;;;8.65;;
75916;SDS011;64595;50.148;14.334;2023-04-03T08:05:51;20.98;;;8.55;;
75916;SDS011;64595;50.148;14.334;2023-04-03T08:08:17;6.78;;;4.75;;
75916;SDS011;64595;50.148;14.334;2023-04-03T08:10:43;8.23;;;4.13;;
75916;SDS011;64595;50.148;14.334;2023-04-03T08:13:13;6.70;;;2.65;;
75916;SDS011;64595;50.148;14.334;2023-04-03T08:15:38;6.60;;;3.42;;
75916;SDS011;64595;50.148;14.334;2023-04-03T08:18:04;5.82;;;4.03;;
75916;SDS011;64595;50.148;14.334;2023-04-03T08:20:34;5.47;;;3.30;;
75916;SDS011;64595;50.148;14.334;2023-04-03T08:23:01;5.43;;;3.30;;
75916;SDS011;64595;50.148;14.334;2023-04-03T08:25:26;6.50;;;2.85;;
75916;SDS011;64595;50.148;14.334;2023-04-03T08:27:52;5.63;;;3.05;;
75916;SDS011;64595;50.148;14.334;2023-04-03T08:30:18;6.25;;;3.13;;
75916;SDS011;64595;50.148;14.334;2023-04-03T08:32:43;5.53;;;3.55;;
75916;SDS011;64595;50.148;14.334;2023-04-03T08:35:09;7.95;;;3.90;;
75916;SDS011;64595;50.148;14.334;2023-04-03T08:37:36;5.68;;;3.60;;
75916;SDS011;64595;50.148;14.334;2023-04-03T08:40:02;5.88;;;3.10;;
75916;SDS011;64595;50.148;14.334;2023-04-03T08:42:32;4.30;;;3.20;;
75916;SDS011;64595;50.148;14.334;2023-04-03T08:47:31;8.48;;;3.58;;
75916;SDS011;64595;50.148;14.334;2023-04-03T08:50:04;3.83;;;3.13;;
75916;SDS011;64595;50.148;14.334;2023-04-03T08:52:32;5.45;;;3.40;;
75916;SDS011;64595;50.148;14.334;2023-04-03T08:55:02;6.50;;;3.63;;
75916;SDS011;64595;50.148;14.334;2023-04-03T08:59:55;5.68;;;2.88;;
75916;SDS011;64595;50.148;14.334;2023-04-03T09:02:24;6.18;;;3.40;;
75916;SDS011;64595;50.148;14.334;2023-04-03T09:04:52;3.92;;;2.72;;
75916;SDS011;64595;50.148;14.334;2023-04-03T09:07:20;4.75;;;2.97;;
75916;SDS011;64595;50.148;14.334;2023-04-03T09:09:49;4.50;;;3.33;;
75916;SDS011;64595;50.148;14.334;2023-04-03T09:12:16;4.70;;;2.45;;
75916;SDS011;64595;50.148;14.334;2023-04-03T09:14:45;7.07;;;2.95;;
75916;SDS011;64595;50.148;14.334;2023-04-03T09:17:14;4.38;;;2.88;;
75916;SDS011;64595;50.148;14.334;2023-04-03T09:19:43;3.92;;;2.13;;
75916;SDS011;64595;50.148;14.334;2023-04-03T09:22:13;5.57;;;2.30;;
75916;SDS011;64595;50.148;14.334;2023-04-03T09:24:41;8.50;;;2.83;;
75916;SDS011;64595;50.148;14.334;2023-04-03T09:27:11;4.47;;;2.60;;
75916;SDS011;64595;50.148;14.334;2023-04-03T09:29:38;8.48;;;2.65;;
75916;SDS011;64595;50.148;14.334;2023-04-03T09:32:12;5.18;;;3.03;;
75916;SDS011;64595;50.148;14.334;2023-04-03T09:34:44;3.88;;;2.50;;
75916;SDS011;64595;50.148;14.334;2023-04-03T09:37:09;6.07;;;2.53;;
75916;SDS011;64595;50.148;14.334;2023-04-03T09:39:48;4.10;;;2.60;;
75916;SDS011;64595;50.148;14.334;2023-04-03T09:42:16;2.83;;;2.15;;
75916;SDS011;64595;50.148;14.334;2023-04-03T09:44:50;6.13;;;2.70;;
75916;SDS011;64595;50.148;14.334;2023-04-03T09:47:19;7.18;;;2.78;;
75916;SDS011;64595;50.148;14.334;2023-04-03T09:49:49;5.07;;;3.08;;
75916;SDS011;64595;50.148;14.334;2023-04-03T09:52:23;4.18;;;3.03;;
75916;SDS011;64595;50.148;14.334;2023-04-03T09:54:50;5.80;;;3.47;;
75916;SDS011;64595;50.148;14.334;2023-04-03T09:57:17;6.63;;;3.00;;
75916;SDS011;64595;50.148;14.334;2023-04-03T09:59:44;4.32;;;2.85;;
75916;SDS011;64595;50.148;14.334;2023-04-03T10:02:22;6.05;;;2.58;;
75916;SDS011;64595;50.148;14.334;2023-04-03T10:04:53;3.47;;;2.70;;
75916;SDS011;64595;50.148;14.334;2023-04-03T10:07:26;4.90;;;2.53;;
75916;SDS011;64595;50.148;14.334;2023-04-03T10:12:21;4.93;;;2.50;;
75916;SDS011;64595;50.148;14.334;2023-04-03T10:14:53;3.72;;;2.20;;
75916;SDS011;64595;50.148;14.334;2023-04-03T10:17:21;4.95;;;2.83;;
75916;SDS011;64595;50.148;14.334;2023-04-03T10:19:53;3.33;;;2.28;;
75916;SDS011;64595;50.148;14.334;2023-04-03T10:27:16;4.43;;;2.38;;
75916;SDS011;64595;50.148;14.334;2023-04-03T10:29:48;3.42;;;2.13;;
75916;SDS011;64595;50.148;14.334;2023-04-03T10:32:23;3.72;;;2.40;;
75916;SDS011;64595;50.148;14.334;2023-04-03T10:34:56;3.88;;;2.15;;
75916;SDS011;64595;50.148;14.334;2023-04-03T10:37:29;4.03;;;2.47;;
75916;SDS011;64595;50.148;14.334;2023-04-03T10:39:57;3.33;;;2.17;;
75916;SDS011;64595;50.148;14.334;2023-04-03T10:42:27;5.00;;;2.30;;
75916;SDS011;64595;50.148;14.334;2023-04-03T10:45:03;3.70;;;2.40;;
75916;SDS011;64595;50.148;14.334;2023-04-03T10:47:37;5.45;;;2.95;;
75916;SDS011;64595;50.148;14.334;2023-04-03T10:50:13;3.47;;;2.50;;
75916;SDS011;64595;50.148;14.334;2023-04-03T10:52:50;3.88;;;2.17;;
75916;SDS011;64595;50.148;14.334;2023-04-03T10:55:24;2.28;;;1.88;;
75916;SDS011;64595;50.148;14.334;2023-04-03T10:57:56;4.28;;;2.70;;
75916;SDS011;64595;50.148;14.334;2023-04-03T11:00:26;3.50;;;2.58;;
75916;SDS011;64595;50.148;14.334;2023-04-03T11:02:57;4.85;;;2.70;;
75916;SDS011;64595;50.148;14.334;2023-04-03T11:05:26;10.23;;;2.65;;
75916;SDS011;64595;50.148;14.334;2023-04-03T11:07:56;3.60;;;2.30;;
75916;SDS011;64595;50.148;14.334;2023-04-03T11:10:23;6.13;;;2.42;;
75916;SDS011;64595;50.148;14.334;2023-04-03T11:12:52;3.20;;;2.22;;
75916;SDS011;64595;50.148;14.334;2023-04-03T11:15:18;8.02;;;2.70;;
75916;SDS011;64595;50.148;14.334;2023-04-03T11:17:46;4.07;;;2.40;;
75916;SDS011;64595;50.148;14.334;2023-04-03T11:20:16;3.05;;;1.95;;
75916;SDS011;64595;50.148;14.334;2023-04-03T11:22:43;5.38;;;2.47;;
75916;SDS011;64595;50.148;14.334;2023-04-03T11:25:14;6.75;;;2.55;;
75916;SDS011;64595;50.148;14.334;2023-04-03T11:27:43;5.97;;;2.65;;
75916;SDS011;64595;50.148;14.334;2023-04-03T11:30:13;4.15;;;2.28;;
75916;SDS011;64595;50.148;14.334;2023-04-03T11:32:48;3.97;;;2.30;;
75916;SDS011;64595;50.148;14.334;2023-04-03T11:35:24;6.20;;;2.55;;
75916;SDS011;64595;50.148;14.334;2023-04-03T11:37:50;4.15;;;2.20;;
75916;SDS011;64595;50.148;14.334;2023-04-03T11:40:19;3.30;;;1.90;;
75916;SDS011;64595;50.148;14.334;2023-04-03T11:42:48;4.95;;;2.20;;
75916;SDS011;64595;50.148;14.334;2023-04-03T11:45:29;4.20;;;2.20;;
75916;SDS011;64595;50.148;14.334;2023-04-03T11:48:00;3.33;;;2.17;;
75916;SDS011;64595;50.148;14.334;2023-04-03T11:53:30;4.72;;;2.47;;
75916;SDS011;64595;50.148;14.334;2023-04-03T12:01:51;4.82;;;2.08;;
75916;SDS011;64595;50.148;14.334;2023-04-03T12:04:18;2.80;;;2.42;;
75916;SDS011;64595;50.148;14.334;2023-04-03T12:12:40;3.10;;;1.85;;
75916;SDS011;64595;50.148;14.334;2023-04-03T12:15:25;4.15;;;2.20;;
75916;SDS011;64595;50.148;14.334;2023-04-03T12:21:07;1.35;;;1.13;;
75916;SDS011;64595;50.148;14.334;2023-04-03T12:23:33;2.42;;;1.73;;
75916;SDS011;64595;50.148;14.334;2023-04-03T12:26:03;3.35;;;1.77;;
75916;SDS011;64595;50.148;14.334;2023-04-03T12:28:35;3.85;;;1.80;;
75916;SDS011;64595;50.148;14.334;2023-04-03T12:31:03;3.80;;;2.10;;
75916;SDS011;64595;50.148;14.334;2023-04-03T12:33:31;3.67;;;2.28;;
75916;SDS011;64595;50.148;14.334;2023-04-03T12:36:05;4.60;;;2.50;;
75916;SDS011;64595;50.148;14.334;2023-04-03T12:38:41;3.05;;;1.83;;
75916;SDS011;64595;50.148;14.334;2023-04-03T12:41:21;3.38;;;2.00;;
75916;SDS011;64595;50.148;14.334;2023-04-03T12:43:54;2.10;;;1.40;;
75916;SDS011;64595;50.148;14.334;2023-04-03T12:46:39;4.32;;;2.42;;
75916;SDS011;64595;50.148;14.334;2023-04-03T12:49:18;3.83;;;1.90;;
75916;SDS011;64595;50.148;14.334;2023-04-03T12:51:51;5.18;;;2.03;;
75916;SDS011;64595;50.148;14.334;2023-04-03T12:54:17;3.90;;;2.40;;
75916;SDS011;64595;50.148;14.334;2023-04-03T12:56:44;3.47;;;2.25;;
75916;SDS011;64595;50.148;14.334;2023-04-03T12:59:13;6.15;;;2.78;;
75916;SDS011;64595;50.148;14.334;2023-04-03T13:01:41;3.30;;;1.88;;
75916;SDS011;64595;50.148;14.334;2023-04-03T13:04:09;3.80;;;1.73;;
75916;SDS011;64595;50.148;14.334;2023-04-03T13:06:37;4.32;;;2.08;;
75916;SDS011;64595;50.148;14.334;2023-04-03T13:09:06;5.22;;;3.00;;
75916;SDS011;64595;50.148;14.334;2023-04-03T13:11:44;4.00;;;2.00;;
75916;SDS011;64595;50.148;14.334;2023-04-03T13:14:14;4.45;;;2.20;;
75916;SDS011;64595;50.148;14.334;2023-04-03T13:16:41;3.50;;;1.75;;
75916;SDS011;64595;50.148;14.334;2023-04-03T13:19:06;3.95;;;1.92;;
75916;SDS011;64595;50.148;14.334;2023-04-03T13:21:41;3.70;;;1.80;;
75916;SDS011;64595;50.148;14.334;2023-04-03T13:24:08;4.75;;;1.95;;
75916;SDS011;64595;50.148;14.334;2023-04-03T13:26:34;3.65;;;1.75;;
75916;SDS011;64595;50.148;14.334;2023-04-03T13:29:01;3.70;;;2.10;;
75916;SDS011;64595;50.148;14.334;2023-04-03T13:31:29;3.80;;;2.05;;
75916;SDS011;64595;50.148;14.334;2023-04-03T13:33:57;5.88;;;1.70;;
75916;SDS011;64595;50.148;14.334;2023-04-03T13:36:27;4.63;;;2.30;;
75916;SDS011;64595;50.148;14.334;2023-04-03T13:38:59;4.15;;;1.80;;
75916;SDS011;64595;50.148;14.334;2023-04-03T13:41:31;3.25;;;1.80;;
75916;SDS011;64595;50.148;14.334;2023-04-03T13:46:42;2.47;;;1.42;;
75916;SDS011;64595;50.148;14.334;2023-04-03T13:49:17;4.55;;;1.90;;
75916;SDS011;64595;50.148;14.334;2023-04-03T13:51:46;4.47;;;1.90;;
75916;SDS011;64595;50.148;14.334;2023-04-03T13:54:16;3.40;;;2.00;;
75916;SDS011;64595;50.148;14.334;2023-04-03T13:56:45;5.60;;;1.90;;
75916;SDS011;64595;50.148;14.334;2023-04-03T13:59:20;3.60;;;1.75;;
75916;SDS011;64595;50.148;14.334;2023-04-03T14:01:48;2.92;;;1.75;;
75916;SDS011;64595;50.148;14.334;2023-04-03T14:04:16;6.93;;;1.70;;
75916;SDS011;64595;50.148;14.334;2023-04-03T14:06:45;2.80;;;1.95;;
75916;SDS011;64595;50.148;14.334;2023-04-03T14:09:11;5.53;;;1.90;;
75916;SDS011;64595;50.148;14.334;2023-04-03T14:11:37;3.80;;;2.05;;
75916;SDS011;64595;50.148;14.334;2023-04-03T14:14:06;3.30;;;1.70;;
75916;SDS011;64595;50.148;14.334;2023-04-03T14:16:37;4.45;;;1.80;;
75916;SDS011;64595;50.148;14.334;2023-04-03T14:19:04;3.60;;;1.75;;
75916;SDS011;64595;50.148;14.334;2023-04-03T14:21:29;4.22;;;1.90;;
75916;SDS011;64595;50.148;14.334;2023-04-03T14:23:55;4.80;;;1.85;;
75916;SDS011;64595;50.148;14.334;2023-04-03T14:26:21;3.83;;;1.80;;
75916;SDS011;64595;50.148;14.334;2023-04-03T14:28:49;5.82;;;1.75;;
75916;SDS011;64595;50.148;14.334;2023-04-03T14:31:16;4.82;;;1.60;;
75916;SDS011;64595;50.148;14.334;2023-04-03T14:33:43;7.43;;;1.95;;
75916;SDS011;64595;50.148;14.334;2023-04-03T14:36:12;6.95;;;1.98;;
75916;SDS011;64595;50.148;14.334;2023-04-03T14:38:38;3.35;;;1.90;;
75916;SDS011;64595;50.148;14.334;2023-04-03T14:41:04;3.17;;;1.73;;
75916;SDS011;64595;50.148;14.334;2023-04-03T14:43:30;2.72;;;1.92;;
75916;SDS011;64595;50.148;14.334;2023-04-03T14:45:55;3.15;;;1.50;;
75916;SDS011;64595;50.148;14.334;2023-04-03T14:48:22;3.70;;;1.40;;
75916;SDS011;64595;50.148;14.334;2023-04-03T14:50:48;2.50;;;1.60;;
75916;SDS011;64595;50.148;14.334;2023-04-03T14:53:14;5.25;;;1.85;;
75916;SDS011;64595;50.148;14.334;2023-04-03T14:55:40;3.78;;;1.80;;
75916;SDS011;64595;50.148;14.334;2023-04-03T14:58:07;4.40;;;1.90;;
75916;SDS011;64595;50.148;14.334;2023-04-03T15:00:34;5.15;;;2.05;;
75916;SDS011;64595;50.148;14.334;2023-04-03T15:02:59;12.70;;;6.57;;
75916;SDS011;64595;50.148;14.334;2023-04-03T15:05:26;9.80;;;7.93;;
75916;SDS011;64595;50.148;14.334;2023-04-03T15:07:52;3.17;;;1.63;;
75916;SDS011;64595;50.148;14.334;2023-04-03T15:10:19;2.97;;;1.80;;